Terminal Aerodrome Forecast
Issued by NWS

Current Version | Previous Version | Text Only | Print | Product List | Glossary On
Versions: 1 2 3 4 5 6 7 8 9 10 11 12 13 14
000
FTUS45 KRIW 292300
TAFRKS
TAF
KRKS 292332Z 3000/3024 27010G18KT P6SM VCTS FEW080CB SCT120
     FM300200 21009KT P6SM VCSH SCT090 BKN120
     FM301600 21012G18KT P6SM -SHRA BKN080
     FM301900 25022G32KT P6SM VCTS SCT070CB BKN100=

USA.gov is the U.S. government's official web portal to all federal, state and local government web resources and services.